createdAt,value
2023-04-05T00:01:00.463Z,50.89
2023-04-05T00:03:29.060Z,50.73
2023-04-05T00:05:57.135Z,50.75
2023-04-05T00:08:28.355Z,51.19
2023-04-05T00:10:56.590Z,50.92
2023-04-05T00:13:24.451Z,50.96
2023-04-05T00:15:52.465Z,50.91
2023-04-05T00:18:23.890Z,51.25
2023-04-05T00:20:52.527Z,50.77
2023-04-05T00:23:21.361Z,50.73
2023-04-05T00:25:50.746Z,50.97
2023-04-05T00:28:18.620Z,51.10
2023-04-05T00:30:46.580Z,50.78
2023-04-05T00:33:14.703Z,51.18
2023-04-05T00:35:42.768Z,51.30
2023-04-05T00:38:10.794Z,51.10
2023-04-05T00:40:39.051Z,51.23
2023-04-05T00:43:08.479Z,51.12
2023-04-05T00:45:36.602Z,51.29
2023-04-05T00:48:06.474Z,51.38
2023-04-05T00:50:35.620Z,51.08
2023-04-05T00:53:03.631Z,51.57
2023-04-05T00:55:33.982Z,51.37
2023-04-05T00:58:01.916Z,51.49
2023-04-05T01:00:31.842Z,51.48
2023-04-05T01:03:02.221Z,51.53
2023-04-05T01:05:38.713Z,51.42
2023-04-05T01:08:15.702Z,51.24
2023-04-05T01:10:47.814Z,51.64
2023-04-05T01:13:17.664Z,51.66
2023-04-05T01:15:47.280Z,51.37
2023-04-05T01:18:15.376Z,51.35
2023-04-05T01:20:58.579Z,51.71
2023-04-05T01:23:39.083Z,51.79
2023-04-05T01:26:39.687Z,51.88
2023-04-05T01:30:04.007Z,51.35
2023-04-05T01:32:44.119Z,51.90
2023-04-05T01:35:19.173Z,51.90
2023-04-05T01:37:52.043Z,51.62
2023-04-05T01:40:20.300Z,51.84
2023-04-05T01:42:48.259Z,52.24
2023-04-05T01:45:17.519Z,51.79
2023-04-05T01:47:45.588Z,51.99
2023-04-05T01:50:14.166Z,52.18
2023-04-05T01:52:41.970Z,52.32
2023-04-05T01:55:10.091Z,52.40
2023-04-05T01:57:39.022Z,52.46
2023-04-05T02:00:08.175Z,52.18
2023-04-05T02:02:42.097Z,52.15
2023-04-05T02:05:10.710Z,52.26
2023-04-05T02:07:38.511Z,52.53
2023-04-05T02:10:07.495Z,52.24
2023-04-05T02:12:35.710Z,52.64
2023-04-05T02:15:04.056Z,52.48
2023-04-05T02:17:34.203Z,52.55
2023-04-05T02:20:06.961Z,52.66
2023-04-05T02:22:34.837Z,52.36
2023-04-05T02:25:03.435Z,52.97
2023-04-05T02:27:31.664Z,52.70
2023-04-05T02:29:59.567Z,52.25
2023-04-05T02:32:27.630Z,52.58
2023-04-05T02:34:55.549Z,52.82
2023-04-05T02:37:27.176Z,52.88
2023-04-05T02:39:55.355Z,52.69
2023-04-05T02:42:23.205Z,52.57
2023-04-05T02:44:52.293Z,52.33
2023-04-05T02:47:22.318Z,52.53
2023-04-05T02:49:59.016Z,52.40
2023-04-05T02:52:34.218Z,52.68
2023-04-05T02:55:02.178Z,52.83
2023-04-05T02:57:32.462Z,53.03
2023-04-05T03:00:23.459Z,53.24
2023-04-05T03:02:52.151Z,52.76
2023-04-05T03:05:22.575Z,53.44
2023-04-05T03:07:54.676Z,53.28
2023-04-05T03:10:29.181Z,53.06
2023-04-05T03:13:04.046Z,53.26
2023-04-05T03:15:33.396Z,53.17
2023-04-05T03:18:07.066Z,52.86
2023-04-05T03:20:40.339Z,53.57
2023-04-05T03:23:17.331Z,53.46
2023-04-05T03:25:46.590Z,53.54
2023-04-05T03:28:18.342Z,53.01
2023-04-05T03:30:50.475Z,53.47
2023-04-05T03:33:21.516Z,52.72
2023-04-05T03:35:52.059Z,53.09
2023-04-05T03:38:22.214Z,52.90
2023-04-05T03:41:09.702Z,53.16
2023-04-05T03:43:37.899Z,53.48
2023-04-05T03:46:07.294Z,53.04
2023-04-05T03:48:35.402Z,53.44
2023-04-05T03:51:03.861Z,52.85
2023-04-05T03:53:33.403Z,52.69
2023-04-05T03:56:01.785Z,53.42
2023-04-05T03:58:41.701Z,52.63
2023-04-05T04:01:10.664Z,53.07
2023-04-05T04:03:39.233Z,53.22
2023-04-05T04:06:08.504Z,53.43
2023-04-05T04:08:37.801Z,52.40
2023-04-05T04:11:06.468Z,52.09
2023-04-05T04:13:38.222Z,51.91
2023-04-05T04:16:21.785Z,52.37
2023-04-05T04:19:06.359Z,52.29
2023-04-05T04:21:48.729Z,52.08
2023-04-05T04:24:27.421Z,51.86
2023-04-05T04:27:30.393Z,51.93
2023-04-05T04:30:22.680Z,52.23
2023-04-05T04:33:09.824Z,52.12
2023-04-05T04:35:47.127Z,51.97
2023-04-05T04:38:34.923Z,51.50
2023-04-05T04:41:30.072Z,52.13
2023-04-05T04:44:28.209Z,51.54
2023-04-05T04:47:21.769Z,51.55
2023-04-05T04:50:07.376Z,51.83
2023-04-05T04:52:35.402Z,51.47
2023-04-05T04:55:04.273Z,51.46
2023-04-05T04:57:33.647Z,51.58
2023-04-05T05:00:01.560Z,50.97
2023-04-05T05:02:31.313Z,50.79
2023-04-05T05:04:59.368Z,51.16
2023-04-05T05:07:27.155Z,51.14
2023-04-05T05:09:55.082Z,51.05
2023-04-05T05:12:23.513Z,51.46
2023-04-05T05:14:52.903Z,51.27
2023-04-05T05:17:24.480Z,51.11
2023-04-05T05:19:53.696Z,51.00
2023-04-05T05:22:23.124Z,50.81
2023-04-05T05:24:50.988Z,50.32
2023-04-05T05:27:19.078Z,50.46
2023-04-05T05:29:47.198Z,49.74
2023-04-05T05:32:17.093Z,49.91
2023-04-05T05:34:45.525Z,49.24
2023-04-05T05:37:13.532Z,49.15
2023-04-05T05:39:41.402Z,48.50
2023-04-05T05:42:09.299Z,48.65
2023-04-05T05:44:37.417Z,48.35
2023-04-05T05:47:05.456Z,47.89
2023-04-05T05:49:34.852Z,48.09
2023-04-05T05:52:02.779Z,47.76
2023-04-05T05:54:30.689Z,47.47
2023-04-05T05:56:58.994Z,47.59
2023-04-05T05:59:27.428Z,47.04
2023-04-05T06:01:55.649Z,47.12
2023-04-05T06:04:23.653Z,46.24
2023-04-05T06:06:52.902Z,46.46
2023-04-05T06:09:21.695Z,46.18
2023-04-05T06:11:56.393Z,46.10
2023-04-05T06:14:25.746Z,46.20
2023-04-05T06:16:53.705Z,46.18
2023-04-05T06:19:21.657Z,45.89
2023-04-05T06:21:49.536Z,45.74
2023-04-05T06:24:18.813Z,45.34
2023-04-05T06:26:46.631Z,44.91
2023-04-05T06:29:14.490Z,45.07
2023-04-05T06:31:43.671Z,45.27
2023-04-05T06:34:11.658Z,45.02
2023-04-05T06:36:39.602Z,45.12
2023-04-05T06:39:08.040Z,45.39
2023-04-05T06:41:37.274Z,45.24
2023-04-05T06:44:05.176Z,44.92
2023-04-05T06:46:33.283Z,44.44
2023-04-05T06:49:03.764Z,44.83
2023-04-05T06:51:32.183Z,45.01
2023-04-05T06:54:00.173Z,44.80
2023-04-05T06:56:28.208Z,44.57
2023-04-05T06:58:59.482Z,44.42
2023-04-05T07:01:27.668Z,44.41
2023-04-05T07:03:55.723Z,44.01
2023-04-05T07:06:24.073Z,43.98
2023-04-05T07:08:52.630Z,44.27
2023-04-05T07:11:21.456Z,44.13
2023-04-05T07:13:49.312Z,43.61
2023-04-05T07:16:23.116Z,43.43
2023-04-05T07:18:51.888Z,43.45
2023-04-05T07:21:19.748Z,43.68
2023-04-05T07:23:47.766Z,43.34
2023-04-05T07:26:15.692Z,42.02
2023-04-05T07:28:43.612Z,42.16
2023-04-05T07:31:11.575Z,42.10
2023-04-05T07:33:41.180Z,41.97
2023-04-05T07:36:10.449Z,41.36
2023-04-05T07:38:38.438Z,41.78
2023-04-05T07:41:06.323Z,40.96
2023-04-05T07:43:34.345Z,41.04
2023-04-05T07:46:03.406Z,41.27
2023-04-05T07:48:31.725Z,40.56
2023-04-05T07:51:06.989Z,40.27
2023-04-05T07:53:35.223Z,39.83
2023-04-05T07:56:04.979Z,40.22
2023-04-05T07:58:33.327Z,40.29
2023-04-05T08:01:01.873Z,40.11
2023-04-05T08:03:30.184Z,39.63
2023-04-05T08:05:58.351Z,39.93
2023-04-05T08:08:27.711Z,39.93
2023-04-05T08:10:55.694Z,39.04
2023-04-05T08:13:23.695Z,38.99
2023-04-05T08:15:51.658Z,39.76
2023-04-05T08:18:20.228Z,39.54
2023-04-05T08:20:52.346Z,40.35
2023-04-05T08:23:20.230Z,38.74
2023-04-05T08:25:49.605Z,39.08
2023-04-05T08:28:18.505Z,38.38
2023-04-05T08:30:47.346Z,38.56
2023-04-05T08:33:15.571Z,38.89
2023-04-05T08:35:44.419Z,38.28
2023-04-05T08:38:12.861Z,37.54
2023-04-05T08:40:43.496Z,36.44
2023-04-05T08:43:20.502Z,37.54
2023-04-05T08:45:51.380Z,37.65
2023-04-05T08:48:20.656Z,37.31
2023-04-05T08:50:52.624Z,37.18
2023-04-05T08:53:21.362Z,36.98
2023-04-05T08:55:52.095Z,36.67
2023-04-05T08:58:23.332Z,37.09
2023-04-05T09:00:52.682Z,37.39
2023-04-05T09:03:24.199Z,37.01
2023-04-05T09:05:53.319Z,35.82
2023-04-05T09:08:22.229Z,36.99
2023-04-05T09:10:51.949Z,36.61
2023-04-05T09:13:21.217Z,36.63
2023-04-05T09:15:50.182Z,37.07
2023-04-05T09:18:26.258Z,36.85
2023-04-05T09:20:58.732Z,36.93
2023-04-05T09:23:26.723Z,36.80
2023-04-05T09:25:54.646Z,36.55
2023-04-05T09:28:23.987Z,36.18
2023-04-05T09:30:51.805Z,36.41
2023-04-05T09:33:22.118Z,36.38
2023-04-05T09:35:52.197Z,36.04
2023-04-05T09:38:41.418Z,36.53
2023-04-05T09:41:10.649Z,36.09
2023-04-05T09:43:41.418Z,36.68
2023-04-05T09:46:29.821Z,36.34
2023-04-05T09:48:58.111Z,36.14
2023-04-05T09:51:33.786Z,36.11
2023-04-05T09:54:03.499Z,35.97
2023-04-05T09:56:32.797Z,36.55
2023-04-05T09:59:04.552Z,36.57
2023-04-05T10:01:33.289Z,36.22
2023-04-05T10:04:02.617Z,35.62
2023-04-05T10:06:37.621Z,35.15
2023-04-05T10:09:06.274Z,35.88
2023-04-05T10:11:35.164Z,36.07
2023-04-05T10:14:07.229Z,35.87
2023-04-05T10:16:39.579Z,35.12
2023-04-05T10:19:15.435Z,35.21
2023-04-05T10:21:46.114Z,35.10
2023-04-05T10:24:19.850Z,35.03
2023-04-05T10:27:00.950Z,35.20
2023-04-05T10:29:39.264Z,35.25
2023-04-05T10:32:14.913Z,35.07
2023-04-05T10:34:45.896Z,34.78
2023-04-05T10:37:26.054Z,34.64
2023-04-05T10:39:54.824Z,35.22
2023-04-05T10:42:28.589Z,35.54
2023-04-05T10:45:04.657Z,34.31
2023-04-05T10:47:33.565Z,34.26
2023-04-05T10:50:05.295Z,34.81
2023-04-05T10:52:35.361Z,34.69
2023-04-05T10:55:04.642Z,34.39
2023-04-05T10:57:33.662Z,33.36
2023-04-05T11:00:03.531Z,32.84
2023-04-05T11:02:32.106Z,33.80
2023-04-05T11:05:05.295Z,33.17
2023-04-05T11:07:44.255Z,33.06
2023-04-05T11:10:17.961Z,33.20
2023-04-05T11:13:05.644Z,33.55
2023-04-05T11:15:36.321Z,33.20
2023-04-05T11:18:09.220Z,33.43
2023-04-05T11:20:48.628Z,33.54
2023-04-05T11:23:18.819Z,33.02
2023-04-05T11:25:54.145Z,33.08
2023-04-05T11:28:26.597Z,33.03
2023-04-05T11:30:58.680Z,32.76
2023-04-05T11:33:56.753Z,31.56
2023-04-05T11:36:33.826Z,31.61
2023-04-05T11:39:29.714Z,32.56
2023-04-05T11:42:03.598Z,33.01
2023-04-05T11:44:42.014Z,32.40
2023-04-05T11:47:11.951Z,32.26
2023-04-05T11:49:40.474Z,33.00
2023-04-05T11:52:12.970Z,32.75
2023-04-05T11:54:46.035Z,33.58
2023-04-05T11:57:17.216Z,33.84
2023-04-05T11:59:45.520Z,33.43
2023-04-05T12:02:14.715Z,32.43
2023-04-05T12:04:42.592Z,32.16
2023-04-05T12:07:15.989Z,32.52
2023-04-05T12:10:07.039Z,31.54
2023-04-05T12:12:39.630Z,30.95
2023-04-05T12:15:10.764Z,31.96
2023-04-05T12:17:49.445Z,31.67
2023-04-05T12:20:19.320Z,32.15
2023-04-05T12:22:49.505Z,32.26
2023-04-05T12:25:18.871Z,31.71
2023-04-05T12:27:47.354Z,32.25
2023-04-05T12:30:17.559Z,31.75
2023-04-05T12:32:48.297Z,31.71
2023-04-05T12:35:20.957Z,30.82
2023-04-05T12:37:50.879Z,31.23
2023-04-05T12:40:22.087Z,30.89
2023-04-05T12:42:50.505Z,31.22
2023-04-05T12:45:19.235Z,30.39
2023-04-05T12:47:53.820Z,30.19
2023-04-05T12:50:28.182Z,29.94
2023-04-05T12:52:57.805Z,29.98
2023-04-05T12:55:26.617Z,29.31
2023-04-05T12:57:55.895Z,29.36
2023-04-05T13:00:26.669Z,29.00
2023-04-05T13:02:57.161Z,30.32
2023-04-05T13:05:26.607Z,29.15
2023-04-05T13:07:54.455Z,29.09
2023-04-05T13:10:23.984Z,28.70
2023-04-05T13:12:51.895Z,28.71
2023-04-05T13:15:20.182Z,28.44
2023-04-05T13:17:50.333Z,28.75
2023-04-05T13:20:20.161Z,28.62
2023-04-05T13:22:48.609Z,27.65
2023-04-05T13:25:16.793Z,26.98
2023-04-05T13:27:44.763Z,26.61
2023-04-05T13:30:13.161Z,27.01
2023-04-05T13:32:41.491Z,27.70
2023-04-05T13:35:10.154Z,26.97
2023-04-05T13:37:39.408Z,27.21
2023-04-05T13:40:08.628Z,27.44
2023-04-05T13:42:36.767Z,27.04
2023-04-05T13:45:05.190Z,27.37
2023-04-05T13:47:33.199Z,27.84
2023-04-05T13:50:01.240Z,27.66
2023-04-05T13:52:29.287Z,27.43
2023-04-05T13:55:01.900Z,27.56
2023-04-05T13:57:32.528Z,27.49
2023-04-05T14:00:00.655Z,27.79
2023-04-05T14:02:29.038Z,27.79
2023-04-05T14:04:57.216Z,26.73
2023-04-05T14:07:25.688Z,26.64
2023-04-05T14:09:53.542Z,26.79
2023-04-05T14:12:22.941Z,27.01
2023-04-05T14:14:50.884Z,26.06
2023-04-05T14:17:18.992Z,25.93
2023-04-05T14:19:46.985Z,26.26
2023-04-05T14:22:15.668Z,26.05
2023-04-05T14:24:43.826Z,25.76
2023-04-05T14:27:11.940Z,26.87
2023-04-05T14:29:41.394Z,26.06
2023-04-05T14:32:09.497Z,25.86
2023-04-05T14:34:37.776Z,26.69
2023-04-05T14:37:06.686Z,26.87
2023-04-05T14:39:34.907Z,26.23
2023-04-05T14:42:03.220Z,26.28
2023-04-05T14:44:31.537Z,26.51
2023-04-05T14:47:01.140Z,25.74
2023-04-05T14:49:29.140Z,26.40
2023-04-05T14:51:57.207Z,26.02
2023-04-05T14:54:25.284Z,26.24
2023-04-05T14:56:53.224Z,26.02
2023-04-05T14:59:21.373Z,25.83
2023-04-05T15:01:49.491Z,25.87
2023-04-05T15:04:18.996Z,25.96
2023-04-05T15:06:46.973Z,26.25
2023-04-05T15:09:15.346Z,25.70
2023-04-05T15:11:43.565Z,26.28
2023-04-05T15:14:21.060Z,26.24
2023-04-05T15:16:52.847Z,25.84
2023-04-05T15:19:22.202Z,25.81
2023-04-05T15:21:50.350Z,26.66
2023-04-05T15:24:18.339Z,26.16
2023-04-05T15:26:46.414Z,25.85
2023-04-05T15:29:14.510Z,25.70
2023-04-05T15:31:42.712Z,26.08
2023-04-05T15:34:10.752Z,25.99
2023-04-05T15:36:40.686Z,26.90
2023-04-05T15:39:08.649Z,26.20
2023-04-05T15:41:36.710Z,26.17
2023-04-05T15:44:04.942Z,26.18
2023-04-05T15:46:33.118Z,26.65
2023-04-05T15:49:01.610Z,26.45
2023-04-05T15:51:30.262Z,27.08
2023-04-05T15:53:59.770Z,26.95
2023-04-05T15:56:27.844Z,26.86
2023-04-05T15:58:56.051Z,27.42
2023-04-05T16:01:24.314Z,27.34
2023-04-05T16:03:52.478Z,27.15
2023-04-05T16:06:22.034Z,27.81
2023-04-05T16:08:50.024Z,27.80
2023-04-05T16:11:19.435Z,27.83
2023-04-05T16:13:47.520Z,28.06
2023-04-05T16:16:24.280Z,28.01
2023-04-05T16:19:00.978Z,28.54
2023-04-05T16:21:29.234Z,27.78
2023-04-05T16:24:00.996Z,27.55
2023-04-05T16:26:33.114Z,28.09
2023-04-05T16:29:01.703Z,28.32
2023-04-05T16:31:30.321Z,28.54
2023-04-05T16:33:58.458Z,28.60
2023-04-05T16:36:27.547Z,28.50
2023-04-05T16:38:55.612Z,28.54
2023-04-05T16:41:23.688Z,28.56
2023-04-05T16:43:53.995Z,29.11
2023-04-05T16:46:22.051Z,29.35
2023-04-05T16:48:50.081Z,29.52
2023-04-05T16:51:18.149Z,29.35
2023-04-05T16:53:46.168Z,30.94
2023-04-05T16:56:14.339Z,30.91
2023-04-05T16:58:42.392Z,31.30
2023-04-05T17:01:11.838Z,32.50
2023-04-05T17:03:42.137Z,32.06
2023-04-05T17:06:11.154Z,33.29
2023-04-05T17:08:39.231Z,33.40
2023-04-05T17:11:07.666Z,34.16
2023-04-05T17:13:35.665Z,34.14
2023-04-05T17:16:03.980Z,34.22
2023-04-05T17:18:33.487Z,34.25
2023-04-05T17:21:01.482Z,34.12
2023-04-05T17:23:29.476Z,34.53
2023-04-05T17:25:57.482Z,35.11
2023-04-05T17:28:26.720Z,35.17
2023-04-05T17:30:54.801Z,35.14
2023-04-05T17:33:23.392Z,35.84
2023-04-05T17:35:52.998Z,35.48
2023-04-05T17:38:21.168Z,35.65
2023-04-05T17:40:49.370Z,35.70
2023-04-05T17:43:17.324Z,35.96
2023-04-05T17:45:45.634Z,35.86
2023-04-05T17:48:13.774Z,36.41
2023-04-05T17:50:41.992Z,36.52
2023-04-05T17:53:11.654Z,36.89
2023-04-05T17:55:39.877Z,36.65
2023-04-05T17:58:07.896Z,37.29
2023-04-05T18:00:36.102Z,37.31
2023-04-05T18:03:07.604Z,37.23
2023-04-05T18:05:36.661Z,37.12
2023-04-05T18:08:04.740Z,37.72
2023-04-05T18:10:34.251Z,37.69
2023-04-05T18:13:05.145Z,37.97
2023-04-05T18:15:33.526Z,37.69
2023-04-05T18:18:01.842Z,37.69
2023-04-05T18:20:29.854Z,37.81
2023-04-05T18:22:59.699Z,37.78
2023-04-05T18:25:27.744Z,37.74
2023-04-05T18:27:57.188Z,37.79
2023-04-05T18:30:25.239Z,37.79
2023-04-05T18:32:53.289Z,37.56
2023-04-05T18:35:22.065Z,38.07
2023-04-05T18:37:50.129Z,38.07
2023-04-05T18:40:18.705Z,37.89
2023-04-05T18:42:47.014Z,38.36
2023-04-05T18:45:16.732Z,38.09
2023-04-05T18:47:44.779Z,38.20
2023-04-05T18:50:12.908Z,38.08
2023-04-05T18:52:41.126Z,38.26
2023-04-05T18:55:09.597Z,38.31
2023-04-05T18:57:37.573Z,38.82
2023-04-05T19:00:07.155Z,38.82
2023-04-05T19:02:36.772Z,38.85
2023-04-05T19:05:05.167Z,39.02
2023-04-05T19:07:33.192Z,38.93
2023-04-05T19:10:01.260Z,38.75
2023-04-05T19:12:29.248Z,39.04
2023-04-05T19:14:57.295Z,39.33
2023-04-05T19:17:25.500Z,39.09
2023-04-05T19:19:54.887Z,38.97
2023-04-05T19:22:22.888Z,39.32
2023-04-05T19:24:50.862Z,39.12
2023-04-05T19:27:18.928Z,39.28
2023-04-05T19:29:47.031Z,39.09
2023-04-05T19:32:15.563Z,39.65
2023-04-05T19:34:43.791Z,39.70
2023-04-05T19:37:13.496Z,39.81
2023-04-05T19:39:42.440Z,39.67
2023-04-05T19:42:10.410Z,40.19
2023-04-05T19:44:49.710Z,39.96
2023-04-05T19:47:19.693Z,40.05
2023-04-05T19:49:50.440Z,39.80
2023-04-05T19:52:39.360Z,39.90
2023-04-05T19:55:28.195Z,40.29
2023-04-05T19:57:56.842Z,40.45
2023-04-05T20:00:32.531Z,40.55
2023-04-05T20:03:01.385Z,40.46
2023-04-05T20:06:07.576Z,40.26
2023-04-05T20:08:38.976Z,40.66
2023-04-05T20:11:09.018Z,40.84
2023-04-05T20:13:43.239Z,40.87
2023-04-05T20:16:13.294Z,40.88
2023-04-05T20:18:45.018Z,40.70
2023-04-05T20:21:13.452Z,40.57
2023-04-05T20:23:44.690Z,41.04
2023-04-05T20:26:16.474Z,40.67
2023-04-05T20:28:53.527Z,40.91
2023-04-05T20:31:23.342Z,41.19
2023-04-05T20:33:54.599Z,41.28
2023-04-05T20:36:24.672Z,40.99
2023-04-05T20:38:54.150Z,40.77
2023-04-05T20:41:22.306Z,41.29
2023-04-05T20:43:50.335Z,41.31
2023-04-05T20:46:18.504Z,41.24
2023-04-05T20:48:46.898Z,41.70
2023-04-05T20:51:16.343Z,41.98
2023-04-05T20:53:44.390Z,42.07
2023-04-05T20:56:13.820Z,42.04
2023-04-05T20:58:42.344Z,41.99
2023-04-05T21:01:11.571Z,41.64
2023-04-05T21:03:41.802Z,41.75
2023-04-05T21:06:11.275Z,41.96
2023-04-05T21:08:41.087Z,42.04
2023-04-05T21:11:10.684Z,41.79
2023-04-05T21:13:41.558Z,41.75
2023-04-05T21:16:09.834Z,41.92
2023-04-05T21:18:37.972Z,42.48
2023-04-05T21:21:08.345Z,42.62
2023-04-05T21:23:36.353Z,42.63
2023-04-05T21:26:06.062Z,42.45
2023-04-05T21:28:34.269Z,42.57
2023-04-05T21:31:03.600Z,42.16
2023-04-05T21:33:31.719Z,42.35
2023-04-05T21:35:59.791Z,42.18
2023-04-05T21:38:27.780Z,42.42
2023-04-05T21:40:56.383Z,41.98
2023-04-05T21:43:24.452Z,41.96
2023-04-05T21:45:52.993Z,41.96
2023-04-05T21:48:24.847Z,41.75
2023-04-05T21:50:53.053Z,42.36
2023-04-05T21:53:21.137Z,42.17
2023-04-05T21:55:49.338Z,42.67
2023-04-05T21:58:18.621Z,42.47
2023-04-05T22:00:46.665Z,42.64
2023-04-05T22:03:14.683Z,42.56
2023-04-05T22:05:44.137Z,42.95
2023-04-05T22:08:12.188Z,43.13
2023-04-05T22:10:40.226Z,43.17
2023-04-05T22:13:08.259Z,43.18
2023-04-05T22:15:36.277Z,42.66
2023-04-05T22:18:05.536Z,42.96
2023-04-05T22:20:33.702Z,43.11
2023-04-05T22:23:03.204Z,43.71
2023-04-05T22:25:31.557Z,43.41
2023-04-05T22:28:00.848Z,43.53
2023-04-05T22:30:40.829Z,43.10
2023-04-05T22:33:12.705Z,43.20
2023-04-05T22:35:41.370Z,43.69
2023-04-05T22:38:11.753Z,43.58
2023-04-05T22:40:39.842Z,43.91
2023-04-05T22:43:07.865Z,43.30
2023-04-05T22:45:35.973Z,43.48
2023-04-05T22:48:04.251Z,43.76
2023-04-05T22:50:32.844Z,43.39
2023-04-05T22:53:00.797Z,43.55
2023-04-05T22:55:30.654Z,43.82
2023-04-05T22:57:58.651Z,44.19
2023-04-05T23:00:26.757Z,43.53
2023-04-05T23:02:54.838Z,44.30
2023-04-05T23:05:22.933Z,44.27
2023-04-05T23:07:50.862Z,44.57
2023-04-05T23:10:19.446Z,44.39
2023-04-05T23:12:49.425Z,44.23
2023-04-05T23:15:17.691Z,44.21
2023-04-05T23:17:45.716Z,44.33
2023-04-05T23:20:14.038Z,43.92
2023-04-05T23:22:42.402Z,44.31
2023-04-05T23:25:11.041Z,43.60
2023-04-05T23:27:39.108Z,43.68
2023-04-05T23:30:09.902Z,43.62
2023-04-05T23:32:37.891Z,43.24
2023-04-05T23:35:06.713Z,43.73
2023-04-05T23:37:34.793Z,43.74
2023-04-05T23:40:02.809Z,43.58
2023-04-05T23:42:30.896Z,43.79
2023-04-05T23:45:00.222Z,44.00
2023-04-05T23:47:29.677Z,44.41
2023-04-05T23:49:57.737Z,44.53
2023-04-05T23:52:25.843Z,44.25
2023-04-05T23:54:53.871Z,44.62
2023-04-05T23:57:22.153Z,44.39
2023-04-05T23:59:51.041Z,44.29
